CGBYQ TFFA-TQPF
Flight info
| Callsign | CGBYQ |
|---|---|
| Flight time | 1h 3m |
| Altitude | 7000 |
| Route | ANU DCT ELOPO DCT ONBED |
| Aircraft | C208/L-SDFGR/C |
Departure
| Time | 2026-04-22 12:44 |
|---|---|
| Airport | La Désirade Airport (TFFA) |
Arrival
| Time | 2026-04-22 13:47 |
|---|---|
| Airport | Clayton J. Lloyd International Airport (TQPF) |
| Time | Latitude | Longitude | Altitude | Speed | Heading |
|---|---|---|---|---|---|
| 2026-04-22 12:04 | 16.29696 | -61.08664 | 14 ft | 0 kts | 243° |
| 2026-04-22 12:15 | 16.29687 | -61.08680 | 14 ft | 3 kts | 230° |
| 2026-04-22 12:15 | 16.29670 | -61.08685 | 14 ft | 3 kts | 169° |
| 2026-04-22 12:16 | 16.29661 | -61.08681 | 14 ft | 0 kts | 148° |
| 2026-04-22 12:16 | 16.29659 | -61.08680 | 14 ft | 2 kts | 149° |
| 2026-04-22 12:16 | 16.29655 | -61.08678 | 14 ft | 0 kts | 163° |
| 2026-04-22 12:42 | 16.29633 | -61.08670 | 13 ft | 6 kts | 147° |
| 2026-04-22 12:42 | 16.29628 | -61.08655 | 13 ft | 3 kts | 72° |
| 2026-04-22 12:43 | 16.29637 | -61.08639 | 13 ft | 1 kts | 70° |
| 2026-04-22 12:43 | 16.29637 | -61.08638 | 13 ft | 0 kts | 71° |
| 2026-04-22 12:44 | 16.29651 | -61.08590 | 13 ft | 29 kts | 72° |
| 2026-04-22 12:44 | 16.29782 | -61.08205 | 53 ft | 76 kts | 72° |
| 2026-04-22 12:44 | 16.29940 | -61.07657 | 328 ft | 81 kts | 78° |
| 2026-04-22 12:44 | 16.29788 | -61.07129 | 666 ft | 84 kts | 135° |
| 2026-04-22 12:45 | 16.29167 | -61.06816 | 772 ft | 115 kts | 169° |
| 2026-04-22 12:45 | 16.28332 | -61.07007 | 938 ft | 134 kts | 213° |
| 2026-04-22 12:45 | 16.27814 | -61.07795 | 1219 ft | 136 kts | 260° |
| 2026-04-22 12:45 | 16.27821 | -61.08741 | 1629 ft | 126 kts | 286° |
| 2026-04-22 12:46 | 16.28383 | -61.09431 | 1821 ft | 135 kts | 333° |
| 2026-04-22 12:46 | 16.29325 | -61.09603 | 1935 ft | 145 kts | 4° |
| 2026-04-22 12:46 | 16.30366 | -61.09539 | 2053 ft | 154 kts | 4° |
| 2026-04-22 12:46 | 16.31450 | -61.09503 | 2159 ft | 157 kts | 356° |
| 2026-04-22 12:47 | 16.32388 | -61.10074 | 2191 ft | 167 kts | 306° |
| 2026-04-22 12:47 | 16.32939 | -61.11141 | 2311 ft | 165 kts | 304° |
| 2026-04-22 12:47 | 16.33748 | -61.11955 | 2463 ft | 161 kts | 325° |
| 2026-04-22 12:47 | 16.34658 | -61.12649 | 2614 ft | 164 kts | 324° |
| 2026-04-22 12:48 | 16.35542 | -61.13403 | 2766 ft | 164 kts | 321° |
| 2026-04-22 12:48 | 16.36399 | -61.14178 | 2911 ft | 162 kts | 321° |
| 2026-04-22 12:48 | 16.37251 | -61.14934 | 3059 ft | 160 kts | 322° |
| 2026-04-22 12:48 | 16.38106 | -61.15678 | 3204 ft | 160 kts | 322° |
| 2026-04-22 12:49 | 16.38964 | -61.16412 | 3356 ft | 159 kts | 323° |
| 2026-04-22 12:49 | 16.39807 | -61.17130 | 3502 ft | 159 kts | 322° |
| 2026-04-22 12:49 | 16.40655 | -61.17860 | 3651 ft | 158 kts | 322° |
| 2026-04-22 12:49 | 16.41503 | -61.18587 | 3800 ft | 158 kts | 322° |
| 2026-04-22 12:50 | 16.42349 | -61.19314 | 3950 ft | 158 kts | 322° |
| 2026-04-22 12:50 | 16.43196 | -61.20038 | 4101 ft | 158 kts | 322° |
| 2026-04-22 12:50 | 16.44041 | -61.20762 | 4251 ft | 157 kts | 322° |
| 2026-04-22 12:50 | 16.44881 | -61.21493 | 4398 ft | 157 kts | 321° |
| 2026-04-22 12:51 | 16.45721 | -61.22222 | 4551 ft | 157 kts | 322° |
| 2026-04-22 12:51 | 16.46567 | -61.22948 | 4700 ft | 157 kts | 322° |
| 2026-04-22 12:51 | 16.47414 | -61.23673 | 4851 ft | 158 kts | 322° |
| 2026-04-22 12:51 | 16.48264 | -61.24403 | 4999 ft | 159 kts | 322° |
| 2026-04-22 12:52 | 16.49116 | -61.25133 | 5149 ft | 159 kts | 322° |
| 2026-04-22 12:52 | 16.49969 | -61.25864 | 5298 ft | 158 kts | 321° |
| 2026-04-22 12:52 | 16.50815 | -61.26599 | 5449 ft | 158 kts | 321° |
| 2026-04-22 12:52 | 16.51664 | -61.27334 | 5602 ft | 159 kts | 321° |
| 2026-04-22 12:53 | 16.52514 | -61.28067 | 5750 ft | 159 kts | 321° |
| 2026-04-22 12:53 | 16.53366 | -61.28800 | 5900 ft | 159 kts | 321° |
| 2026-04-22 12:53 | 16.54219 | -61.29537 | 6050 ft | 159 kts | 321° |
| 2026-04-22 12:53 | 16.55073 | -61.30272 | 6198 ft | 159 kts | 322° |
| 2026-04-22 12:54 | 16.55927 | -61.31006 | 6347 ft | 159 kts | 321° |
| 2026-04-22 12:54 | 16.56769 | -61.31731 | 6494 ft | 159 kts | 321° |
| 2026-04-22 12:54 | 16.57621 | -61.32464 | 6651 ft | 159 kts | 322° |
| 2026-04-22 12:54 | 16.58472 | -61.33195 | 6785 ft | 157 kts | 321° |
| 2026-04-22 12:55 | 16.59315 | -61.33929 | 6941 ft | 158 kts | 321° |
| 2026-04-22 12:55 | 16.60166 | -61.34662 | 6996 ft | 162 kts | 321° |
| 2026-04-22 12:55 | 16.61051 | -61.35422 | 7002 ft | 168 kts | 322° |
| 2026-04-22 12:55 | 16.61962 | -61.36204 | 7013 ft | 173 kts | 321° |
| 2026-04-22 12:56 | 16.62890 | -61.37004 | 7002 ft | 175 kts | 321° |
| 2026-04-22 12:56 | 16.63829 | -61.37811 | 7000 ft | 175 kts | 321° |
| 2026-04-22 12:56 | 16.64770 | -61.38625 | 7008 ft | 177 kts | 321° |
| 2026-04-22 12:56 | 16.65711 | -61.39437 | 7009 ft | 178 kts | 321° |
| 2026-04-22 12:57 | 16.66667 | -61.40266 | 7010 ft | 179 kts | 321° |
| 2026-04-22 12:57 | 16.67631 | -61.41099 | 7009 ft | 180 kts | 321° |
| 2026-04-22 12:57 | 16.68594 | -61.41930 | 7011 ft | 179 kts | 321° |
| 2026-04-22 12:57 | 16.69559 | -61.42761 | 7008 ft | 180 kts | 321° |
| 2026-04-22 12:58 | 16.70522 | -61.43590 | 7003 ft | 179 kts | 321° |
| 2026-04-22 12:58 | 16.71485 | -61.44422 | 7008 ft | 179 kts | 321° |
| 2026-04-22 12:58 | 16.72445 | -61.45251 | 7007 ft | 179 kts | 322° |
| 2026-04-22 12:58 | 16.73402 | -61.46079 | 7005 ft | 179 kts | 321° |
| 2026-04-22 12:59 | 16.74361 | -61.46907 | 7007 ft | 179 kts | 321° |
| 2026-04-22 12:59 | 16.75322 | -61.47741 | 7010 ft | 181 kts | 321° |
| 2026-04-22 12:59 | 16.76295 | -61.48578 | 7002 ft | 181 kts | 321° |
| 2026-04-22 12:59 | 16.77271 | -61.49417 | 6998 ft | 181 kts | 322° |
| 2026-04-22 13:00 | 16.78233 | -61.50245 | 7005 ft | 178 kts | 321° |
| 2026-04-22 13:00 | 16.79169 | -61.51060 | 7004 ft | 176 kts | 321° |
| 2026-04-22 13:00 | 16.80106 | -61.51873 | 6999 ft | 175 kts | 321° |
| 2026-04-22 13:00 | 16.81042 | -61.52682 | 6995 ft | 174 kts | 321° |
| 2026-04-22 13:01 | 16.81972 | -61.53487 | 6995 ft | 174 kts | 321° |
| 2026-04-22 13:01 | 16.82906 | -61.54292 | 6995 ft | 174 kts | 322° |
| 2026-04-22 13:01 | 16.83839 | -61.55097 | 6990 ft | 174 kts | 321° |
| 2026-04-22 13:01 | 16.84773 | -61.55904 | 6989 ft | 174 kts | 321° |
| 2026-04-22 13:02 | 16.85704 | -61.56710 | 6993 ft | 174 kts | 321° |
| 2026-04-22 13:02 | 16.86639 | -61.57518 | 6993 ft | 175 kts | 321° |
| 2026-04-22 13:02 | 16.87574 | -61.58328 | 6990 ft | 175 kts | 321° |
| 2026-04-22 13:02 | 16.88510 | -61.59141 | 6989 ft | 176 kts | 321° |
| 2026-04-22 13:03 | 16.89446 | -61.59954 | 6993 ft | 175 kts | 322° |
| 2026-04-22 13:03 | 16.90382 | -61.60761 | 6996 ft | 174 kts | 321° |
| 2026-04-22 13:03 | 16.91316 | -61.61568 | 6996 ft | 174 kts | 321° |
| 2026-04-22 13:03 | 16.92251 | -61.62377 | 6994 ft | 175 kts | 321° |
| 2026-04-22 13:04 | 16.93183 | -61.63182 | 6993 ft | 177 kts | 321° |
| 2026-04-22 13:04 | 16.94138 | -61.64009 | 7000 ft | 179 kts | 321° |
| 2026-04-22 13:04 | 16.95101 | -61.64846 | 7002 ft | 182 kts | 321° |
| 2026-04-22 13:04 | 16.96073 | -61.65688 | 7007 ft | 182 kts | 321° |
| 2026-04-22 13:05 | 16.97049 | -61.66532 | 7006 ft | 181 kts | 321° |
| 2026-04-22 13:05 | 16.98016 | -61.67370 | 7002 ft | 181 kts | 321° |
| 2026-04-22 13:05 | 16.98986 | -61.68213 | 7001 ft | 182 kts | 321° |
| 2026-04-22 13:05 | 16.99958 | -61.69056 | 7005 ft | 181 kts | 321° |
| 2026-04-22 13:06 | 17.00932 | -61.69899 | 7000 ft | 181 kts | 322° |
| 2026-04-22 13:06 | 17.01971 | -61.70635 | 7001 ft | 180 kts | 332° |
| 2026-04-22 13:06 | 17.03086 | -61.71242 | 7000 ft | 180 kts | 334° |
| 2026-04-22 13:06 | 17.04209 | -61.71823 | 6996 ft | 180 kts | 335° |
| 2026-04-22 13:07 | 17.05334 | -61.72398 | 6994 ft | 180 kts | 335° |
| 2026-04-22 13:07 | 17.06458 | -61.72971 | 7002 ft | 180 kts | 334° |
| 2026-04-22 13:07 | 17.07532 | -61.73644 | 7006 ft | 179 kts | 333° |
| 2026-04-22 13:07 | 17.08571 | -61.74334 | 7008 ft | 180 kts | 323° |
| 2026-04-22 13:08 | 17.09507 | -61.75210 | 7000 ft | 180 kts | 314° |
| 2026-04-22 13:08 | 17.10265 | -61.76257 | 7005 ft | 181 kts | 311° |
| 2026-04-22 13:08 | 17.11157 | -61.77181 | 7005 ft | 180 kts | 321° |
| 2026-04-22 13:08 | 17.12090 | -61.78058 | 7002 ft | 181 kts | 312° |
| 2026-04-22 13:09 | 17.12775 | -61.79166 | 7010 ft | 183 kts | 298° |
| 2026-04-22 13:09 | 17.13133 | -61.80437 | 7009 ft | 184 kts | 277° |
| 2026-04-22 13:09 | 17.13445 | -61.81713 | 6994 ft | 182 kts | 303° |
| 2026-04-22 13:09 | 17.14331 | -61.82642 | 6996 ft | 181 kts | 319° |
| 2026-04-22 13:10 | 17.15181 | -61.83612 | 6998 ft | 182 kts | 308° |
| 2026-04-22 13:10 | 17.15906 | -61.84699 | 7001 ft | 182 kts | 305° |
| 2026-04-22 13:10 | 17.16623 | -61.85794 | 6998 ft | 182 kts | 306° |
| 2026-04-22 13:10 | 17.17365 | -61.86877 | 7001 ft | 184 kts | 307° |
| 2026-04-22 13:11 | 17.18122 | -61.87952 | 6998 ft | 183 kts | 308° |
| 2026-04-22 13:11 | 17.18878 | -61.89023 | 6997 ft | 183 kts | 308° |
| 2026-04-22 13:11 | 17.19631 | -61.90097 | 6998 ft | 183 kts | 307° |
| 2026-04-22 13:11 | 17.20380 | -61.91170 | 6994 ft | 182 kts | 307° |
| 2026-04-22 13:12 | 17.21118 | -61.92230 | 6997 ft | 183 kts | 307° |
| 2026-04-22 13:12 | 17.21871 | -61.93308 | 6999 ft | 183 kts | 307° |
| 2026-04-22 13:12 | 17.22624 | -61.94389 | 6999 ft | 184 kts | 307° |
| 2026-04-22 13:12 | 17.23376 | -61.95471 | 6998 ft | 184 kts | 307° |
| 2026-04-22 13:13 | 17.24131 | -61.96550 | 6998 ft | 183 kts | 307° |
| 2026-04-22 13:13 | 17.24882 | -61.97629 | 6995 ft | 183 kts | 307° |
| 2026-04-22 13:13 | 17.25632 | -61.98706 | 6994 ft | 183 kts | 307° |
| 2026-04-22 13:13 | 17.26384 | -61.99784 | 6997 ft | 183 kts | 307° |
| 2026-04-22 13:14 | 17.27136 | -62.00863 | 6997 ft | 183 kts | 307° |
| 2026-04-22 13:14 | 17.27885 | -62.01936 | 6997 ft | 183 kts | 307° |
| 2026-04-22 13:14 | 17.28636 | -62.03013 | 6997 ft | 183 kts | 307° |
| 2026-04-22 13:14 | 17.29384 | -62.04090 | 6996 ft | 183 kts | 307° |
| 2026-04-22 13:15 | 17.30131 | -62.05166 | 6995 ft | 183 kts | 307° |
| 2026-04-22 13:15 | 17.30884 | -62.06250 | 6998 ft | 185 kts | 308° |
| 2026-04-22 13:15 | 17.31637 | -62.07329 | 7001 ft | 187 kts | 308° |
| 2026-04-22 13:15 | 17.32405 | -62.08431 | 7007 ft | 188 kts | 308° |
| 2026-04-22 13:16 | 17.33173 | -62.09534 | 7006 ft | 187 kts | 307° |
| 2026-04-22 13:16 | 17.33940 | -62.10637 | 7000 ft | 187 kts | 307° |
| 2026-04-22 13:16 | 17.34707 | -62.11739 | 7006 ft | 186 kts | 308° |
| 2026-04-22 13:16 | 17.35472 | -62.12840 | 7008 ft | 188 kts | 307° |
| 2026-04-22 13:17 | 17.36236 | -62.13939 | 7007 ft | 186 kts | 308° |
| 2026-04-22 13:17 | 17.37000 | -62.15037 | 7006 ft | 187 kts | 308° |
| 2026-04-22 13:17 | 17.37765 | -62.16137 | 7003 ft | 187 kts | 308° |
| 2026-04-22 13:17 | 17.38525 | -62.17229 | 7000 ft | 185 kts | 307° |
| 2026-04-22 13:18 | 17.39278 | -62.18315 | 7000 ft | 184 kts | 307° |
| 2026-04-22 13:18 | 17.40029 | -62.19398 | 7001 ft | 184 kts | 308° |
| 2026-04-22 13:18 | 17.40783 | -62.20481 | 6998 ft | 183 kts | 308° |
| 2026-04-22 13:18 | 17.41533 | -62.21559 | 6998 ft | 183 kts | 307° |
| 2026-04-22 13:19 | 17.42282 | -62.22639 | 7004 ft | 183 kts | 307° |
| 2026-04-22 13:19 | 17.43031 | -62.23716 | 7003 ft | 183 kts | 307° |
| 2026-04-22 13:19 | 17.43780 | -62.24795 | 7002 ft | 183 kts | 307° |
| 2026-04-22 13:19 | 17.44523 | -62.25863 | 6998 ft | 183 kts | 307° |
| 2026-04-22 13:20 | 17.45274 | -62.26947 | 6999 ft | 183 kts | 307° |
| 2026-04-22 13:20 | 17.46023 | -62.28028 | 7003 ft | 183 kts | 307° |
| 2026-04-22 13:20 | 17.46773 | -62.29107 | 7000 ft | 184 kts | 307° |
| 2026-04-22 13:20 | 17.47526 | -62.30190 | 6999 ft | 184 kts | 307° |
| 2026-04-22 13:21 | 17.48277 | -62.31274 | 7006 ft | 183 kts | 307° |
| 2026-04-22 13:21 | 17.49026 | -62.32358 | 7007 ft | 184 kts | 307° |
| 2026-04-22 13:21 | 17.49777 | -62.33441 | 6998 ft | 184 kts | 307° |
| 2026-04-22 13:21 | 17.50532 | -62.34525 | 7005 ft | 185 kts | 307° |
| 2026-04-22 13:22 | 17.51286 | -62.35614 | 7007 ft | 184 kts | 307° |
| 2026-04-22 13:22 | 17.52029 | -62.36692 | 7011 ft | 181 kts | 307° |
| 2026-04-22 13:22 | 17.52765 | -62.37754 | 7011 ft | 179 kts | 308° |
| 2026-04-22 13:22 | 17.53498 | -62.38808 | 7012 ft | 178 kts | 308° |
| 2026-04-22 13:23 | 17.54218 | -62.39843 | 7011 ft | 179 kts | 308° |
| 2026-04-22 13:23 | 17.54963 | -62.40915 | 7012 ft | 181 kts | 307° |
| 2026-04-22 13:23 | 17.55694 | -62.41973 | 7014 ft | 182 kts | 307° |
| 2026-04-22 13:23 | 17.56437 | -62.43052 | 7016 ft | 183 kts | 307° |
| 2026-04-22 13:24 | 17.57182 | -62.44129 | 7018 ft | 183 kts | 307° |
| 2026-04-22 13:24 | 17.57930 | -62.45209 | 7020 ft | 183 kts | 307° |
| 2026-04-22 13:24 | 17.58678 | -62.46288 | 7019 ft | 183 kts | 308° |
| 2026-04-22 13:24 | 17.59446 | -62.47356 | 7020 ft | 183 kts | 308° |
| 2026-04-22 13:25 | 17.60203 | -62.48435 | 7022 ft | 184 kts | 307° |
| 2026-04-22 13:25 | 17.60940 | -62.49526 | 7023 ft | 184 kts | 307° |
| 2026-04-22 13:25 | 17.61429 | -62.50252 | 7022 ft | 184 kts | 307° |
| 2026-04-22 13:25 | 17.62172 | -62.51342 | 7021 ft | 184 kts | 307° |
| 2026-04-22 13:26 | 17.62921 | -62.52426 | 7025 ft | 183 kts | 307° |
| 2026-04-22 13:26 | 17.63670 | -62.53508 | 7022 ft | 183 kts | 307° |
| 2026-04-22 13:26 | 17.64420 | -62.54591 | 7022 ft | 183 kts | 307° |
| 2026-04-22 13:26 | 17.65168 | -62.55672 | 7023 ft | 183 kts | 307° |
| 2026-04-22 13:27 | 17.65918 | -62.56756 | 7020 ft | 183 kts | 307° |
| 2026-04-22 13:27 | 17.66668 | -62.57840 | 7022 ft | 184 kts | 307° |
| 2026-04-22 13:27 | 17.67417 | -62.58924 | 7019 ft | 183 kts | 307° |
| 2026-04-22 13:27 | 17.68164 | -62.60007 | 7019 ft | 183 kts | 307° |
| 2026-04-22 13:28 | 17.68909 | -62.61089 | 7019 ft | 183 kts | 307° |
| 2026-04-22 13:28 | 17.69658 | -62.62174 | 7021 ft | 183 kts | 307° |
| 2026-04-22 13:28 | 17.70401 | -62.63245 | 7020 ft | 184 kts | 307° |
| 2026-04-22 13:28 | 17.71150 | -62.64330 | 7019 ft | 183 kts | 307° |
| 2026-04-22 13:29 | 17.71897 | -62.65412 | 7021 ft | 184 kts | 307° |
| 2026-04-22 13:29 | 17.72646 | -62.66502 | 7022 ft | 184 kts | 307° |
| 2026-04-22 13:29 | 17.73394 | -62.67587 | 7021 ft | 184 kts | 307° |
| 2026-04-22 13:29 | 17.74144 | -62.68673 | 7023 ft | 184 kts | 307° |
| 2026-04-22 13:30 | 17.74893 | -62.69757 | 7021 ft | 183 kts | 307° |
| 2026-04-22 13:30 | 17.75641 | -62.70842 | 7022 ft | 183 kts | 307° |
| 2026-04-22 13:30 | 17.76380 | -62.71914 | 7021 ft | 183 kts | 307° |
| 2026-04-22 13:30 | 17.77128 | -62.72998 | 7022 ft | 183 kts | 307° |
| 2026-04-22 13:31 | 17.77875 | -62.74081 | 7022 ft | 183 kts | 307° |
| 2026-04-22 13:31 | 17.78622 | -62.75165 | 7023 ft | 183 kts | 307° |
| 2026-04-22 13:31 | 17.79368 | -62.76248 | 7022 ft | 183 kts | 307° |
| 2026-04-22 13:31 | 17.80115 | -62.77329 | 7022 ft | 183 kts | 307° |
| 2026-04-22 13:32 | 17.80862 | -62.78416 | 7025 ft | 183 kts | 307° |
| 2026-04-22 13:32 | 17.81608 | -62.79502 | 7024 ft | 183 kts | 307° |
| 2026-04-22 13:32 | 17.82356 | -62.80589 | 7025 ft | 184 kts | 307° |
| 2026-04-22 13:32 | 17.83098 | -62.81663 | 7021 ft | 183 kts | 307° |
| 2026-04-22 13:33 | 17.83845 | -62.82747 | 7021 ft | 183 kts | 307° |
| 2026-04-22 13:33 | 17.84714 | -62.83708 | 7013 ft | 181 kts | 329° |
| 2026-04-22 13:33 | 17.85831 | -62.84309 | 7014 ft | 180 kts | 335° |
| 2026-04-22 13:33 | 17.86919 | -62.84964 | 7015 ft | 181 kts | 329° |
| 2026-04-22 13:34 | 17.87981 | -62.85666 | 7018 ft | 180 kts | 330° |
| 2026-04-22 13:34 | 17.89059 | -62.86336 | 7019 ft | 180 kts | 332° |
| 2026-04-22 13:34 | 17.90153 | -62.86987 | 6953 ft | 183 kts | 332° |
| 2026-04-22 13:34 | 17.91258 | -62.87640 | 6825 ft | 181 kts | 332° |
| 2026-04-22 13:35 | 17.92326 | -62.88283 | 6696 ft | 173 kts | 332° |
| 2026-04-22 13:35 | 17.93355 | -62.88909 | 6565 ft | 169 kts | 332° |
| 2026-04-22 13:35 | 17.94365 | -62.89521 | 6434 ft | 167 kts | 332° |
| 2026-04-22 13:35 | 17.95366 | -62.90126 | 6340 ft | 163 kts | 332° |
| 2026-04-22 13:36 | 17.96337 | -62.90716 | 6306 ft | 161 kts | 332° |
| 2026-04-22 13:36 | 17.97309 | -62.91307 | 6105 ft | 160 kts | 332° |
| 2026-04-22 13:36 | 17.98259 | -62.91888 | 5914 ft | 156 kts | 332° |
| 2026-04-22 13:36 | 17.99197 | -62.92455 | 5749 ft | 154 kts | 332° |
| 2026-04-22 13:37 | 18.00134 | -62.93015 | 5630 ft | 160 kts | 332° |
| 2026-04-22 13:37 | 18.01119 | -62.93607 | 5515 ft | 168 kts | 332° |
| 2026-04-22 13:37 | 18.02139 | -62.94230 | 5397 ft | 171 kts | 332° |
| 2026-04-22 13:37 | 18.03176 | -62.94865 | 5280 ft | 174 kts | 332° |
| 2026-04-22 13:38 | 18.04226 | -62.95506 | 5162 ft | 175 kts | 332° |
| 2026-04-22 13:38 | 18.06351 | -62.96799 | 4918 ft | 177 kts | 332° |
| 2026-04-22 13:38 | 18.07413 | -62.97443 | 4793 ft | 176 kts | 332° |
| 2026-04-22 13:39 | 18.08474 | -62.98086 | 4668 ft | 174 kts | 332° |
| 2026-04-22 13:39 | 18.09490 | -62.98710 | 4536 ft | 165 kts | 332° |
| 2026-04-22 13:39 | 18.10466 | -62.99306 | 4403 ft | 161 kts | 332° |
| 2026-04-22 13:39 | 18.11428 | -62.99887 | 4271 ft | 158 kts | 332° |
| 2026-04-22 13:40 | 18.12374 | -63.00461 | 4144 ft | 157 kts | 333° |
| 2026-04-22 13:40 | 18.13330 | -63.01039 | 4017 ft | 159 kts | 333° |
| 2026-04-22 13:40 | 18.14292 | -63.01626 | 3892 ft | 160 kts | 333° |
| 2026-04-22 13:40 | 18.15235 | -63.02256 | 3763 ft | 162 kts | 319° |
| 2026-04-22 13:41 | 18.15739 | -63.03295 | 3637 ft | 159 kts | 289° |
| 2026-04-22 13:41 | 18.16062 | -63.04366 | 3508 ft | 153 kts | 293° |
| 2026-04-22 13:41 | 18.16491 | -63.05395 | 3376 ft | 150 kts | 298° |
| 2026-04-22 13:41 | 18.16820 | -63.06416 | 3246 ft | 152 kts | 282° |
| 2026-04-22 13:42 | 18.16944 | -63.07522 | 3122 ft | 153 kts | 276° |
| 2026-04-22 13:42 | 18.17014 | -63.08639 | 3025 ft | 152 kts | 275° |
| 2026-04-22 13:42 | 18.16968 | -63.09724 | 3019 ft | 146 kts | 266° |
| 2026-04-22 13:42 | 18.16864 | -63.10800 | 2900 ft | 148 kts | 266° |
| 2026-04-22 13:43 | 18.16767 | -63.11876 | 2775 ft | 147 kts | 266° |
| 2026-04-22 13:43 | 18.16674 | -63.12945 | 2649 ft | 146 kts | 266° |
| 2026-04-22 13:43 | 18.16585 | -63.14010 | 2524 ft | 146 kts | 266° |
| 2026-04-22 13:43 | 18.16566 | -63.15070 | 2392 ft | 144 kts | 284° |
| 2026-04-22 13:44 | 18.17114 | -63.15869 | 2255 ft | 133 kts | 336° |
| 2026-04-22 13:44 | 18.17989 | -63.16019 | 2128 ft | 127 kts | 1° |
| 2026-04-22 13:44 | 18.18829 | -63.15890 | 2015 ft | 118 kts | 34° |
| 2026-04-22 13:44 | 18.19324 | -63.15277 | 2007 ft | 106 kts | 57° |
| 2026-04-22 13:45 | 18.19579 | -63.14594 | 2006 ft | 96 kts | 73° |
| 2026-04-22 13:45 | 18.19767 | -63.13880 | 2025 ft | 109 kts | 74° |
| 2026-04-22 13:45 | 18.19985 | -63.13021 | 2035 ft | 132 kts | 75° |
| 2026-04-22 13:45 | 18.20178 | -63.12020 | 2032 ft | 145 kts | 82° |
| 2026-04-22 13:46 | 18.20299 | -63.11025 | 1953 ft | 133 kts | 82° |
| 2026-04-22 13:46 | 18.20389 | -63.10075 | 1456 ft | 126 kts | 84° |
| 2026-04-22 13:46 | 18.20437 | -63.09138 | 980 ft | 132 kts | 87° |
| 2026-04-22 13:46 | 18.20469 | -63.08197 | 603 ft | 121 kts | 87° |
| 2026-04-22 13:47 | 18.20487 | -63.07346 | 385 ft | 114 kts | 89° |
| 2026-04-22 13:47 | 18.20489 | -63.06550 | 249 ft | 104 kts | 91° |
| 2026-04-22 13:47 | 18.20490 | -63.05836 | 128 ft | 87 kts | 87° |
| 2026-04-22 13:47 | 18.20481 | -63.05401 | 126 ft | 17 kts | 89° |
| 2026-04-22 13:48 | 18.20488 | -63.05335 | 127 ft | 1 kts | 62° |
| 2026-04-22 13:48 | 18.20507 | -63.05321 | 126 ft | 9 kts | 14° |
| 2026-04-22 13:48 | 18.20560 | -63.05322 | 126 ft | 4 kts | 357° |
| 2026-04-22 13:48 | 18.20600 | -63.05298 | 124 ft | 8 kts | 38° |
| 2026-04-22 13:49 | 18.20614 | -63.05285 | 124 ft | 0 kts | 44° |